createdAt,value
2023-01-05T00:00:32.089Z,61.39
2023-01-05T00:01:22.382Z,59.81
2023-01-05T00:01:54.641Z,58.81
2023-01-05T00:02:29.102Z,58.23
2023-01-05T00:03:01.299Z,57.84
2023-01-05T00:03:34.646Z,57.69
2023-01-05T00:04:07.362Z,57.83
2023-01-05T00:04:39.462Z,58.32
2023-01-05T00:05:11.801Z,58.92
2023-01-05T00:05:44.237Z,59.47
2023-01-05T00:06:17.772Z,59.97
2023-01-05T00:06:49.796Z,60.49
2023-01-05T00:07:21.683Z,61.07
2023-01-05T00:07:53.916Z,61.65
2023-01-05T00:08:29.096Z,62.03
2023-01-05T00:09:04.294Z,62.58
2023-01-05T00:09:38.109Z,63.08
2023-01-05T00:10:30.260Z,63.15
2023-01-05T00:11:25.376Z,62.62
2023-01-05T00:12:16.059Z,61.70
2023-01-05T00:13:13.782Z,59.42
2023-01-05T00:14:04.296Z,58.62
2023-01-05T00:15:04.354Z,57.67
2023-01-05T00:15:55.570Z,58.05
2023-01-05T00:16:46.263Z,58.69
2023-01-05T00:17:40.140Z,59.40
2023-01-05T00:18:34.293Z,60.35
2023-01-05T00:19:29.193Z,61.24
2023-01-05T00:20:20.140Z,61.81
2023-01-05T00:21:10.516Z,62.74
2023-01-05T00:22:01.613Z,63.20
2023-01-05T00:22:38.415Z,62.89
2023-01-05T00:23:21.366Z,61.85
2023-01-05T00:23:53.793Z,60.73
2023-01-05T00:24:26.137Z,60.17
2023-01-05T00:24:57.982Z,59.25
2023-01-05T00:25:33.456Z,58.54
2023-01-05T00:26:18.894Z,57.73
2023-01-05T00:26:50.993Z,57.63
2023-01-05T00:27:23.129Z,57.82
2023-01-05T00:27:56.078Z,58.26
2023-01-05T00:28:28.071Z,58.68
2023-01-05T00:29:09.504Z,59.28
2023-01-05T00:29:41.440Z,59.76
2023-01-05T00:30:16.697Z,60.42
2023-01-05T00:30:52.107Z,61.15
2023-01-05T00:31:24.449Z,61.85
2023-01-05T00:31:56.902Z,62.41
2023-01-05T00:32:29.186Z,62.89
2023-01-05T00:33:01.342Z,63.29
2023-01-05T00:33:57.807Z,63.29
2023-01-05T00:34:30.045Z,62.24
2023-01-05T00:35:02.371Z,61.61
2023-01-05T00:35:34.270Z,60.76
2023-01-05T00:36:10.307Z,60.19
2023-01-05T00:36:42.281Z,59.50
2023-01-05T00:37:14.478Z,58.41
2023-01-05T00:37:46.639Z,57.99
2023-01-05T00:38:18.587Z,57.88
2023-01-05T00:38:51.535Z,58.13
2023-01-05T00:39:23.836Z,58.43
2023-01-05T00:39:56.164Z,58.94
2023-01-05T00:40:28.471Z,59.40
2023-01-05T00:41:00.751Z,60.04
2023-01-05T00:41:32.948Z,60.57
2023-01-05T00:42:05.213Z,61.21
2023-01-05T00:42:37.495Z,61.84
2023-01-05T00:43:09.782Z,62.32
2023-01-05T00:43:44.249Z,62.74
2023-01-05T00:44:16.265Z,63.38
2023-01-05T00:44:48.330Z,63.36
2023-01-05T00:45:21.591Z,63.04
2023-01-05T00:45:53.970Z,62.36
2023-01-05T00:46:26.288Z,61.62
2023-01-05T00:46:58.268Z,60.78
2023-01-05T00:47:30.204Z,60.29
2023-01-05T00:48:18.480Z,59.52
2023-01-05T00:48:50.497Z,58.33
2023-01-05T00:49:22.401Z,57.65
2023-01-05T00:49:57.088Z,57.64
2023-01-05T00:50:29.791Z,57.98
2023-01-05T00:51:02.559Z,58.52
2023-01-05T00:51:34.446Z,58.98
2023-01-05T00:52:06.831Z,59.65
2023-01-05T00:52:38.904Z,60.44
2023-01-05T00:53:11.090Z,60.92
2023-01-05T00:53:43.101Z,61.48
2023-01-05T00:54:17.840Z,62.05
2023-01-05T00:54:49.909Z,62.68
2023-01-05T00:55:21.818Z,63.21
2023-01-05T00:55:59.851Z,63.55
2023-01-05T00:56:31.955Z,63.27
2023-01-05T00:57:05.650Z,62.79
2023-01-05T00:57:37.667Z,62.03
2023-01-05T00:58:09.705Z,61.36
2023-01-05T00:58:41.735Z,60.40
2023-01-05T00:59:13.733Z,59.66
2023-01-05T00:59:45.680Z,59.29
2023-01-05T01:00:20.157Z,58.48
2023-01-05T01:00:53.478Z,58.11
2023-01-05T01:01:25.526Z,58.14
2023-01-05T01:01:57.604Z,58.50
2023-01-05T01:02:29.687Z,58.80
2023-01-05T01:03:02.379Z,59.44
2023-01-05T01:03:35.804Z,59.95
2023-01-05T01:04:07.843Z,60.70
2023-01-05T01:04:40.096Z,61.32
2023-01-05T01:05:12.666Z,61.93
2023-01-05T01:05:44.568Z,62.54
2023-01-05T01:06:25.666Z,63.07
2023-01-05T01:06:58.581Z,63.44
2023-01-05T01:07:30.536Z,63.27
2023-01-05T01:08:02.425Z,62.71
2023-01-05T01:08:34.670Z,62.00
2023-01-05T01:09:06.815Z,61.25
2023-01-05T01:09:40.173Z,60.33
2023-01-05T01:10:12.465Z,59.45
2023-01-05T01:10:44.308Z,58.53
2023-01-05T01:11:16.516Z,58.09
2023-01-05T01:11:48.836Z,57.83
2023-01-05T01:12:20.871Z,57.87
2023-01-05T01:12:54.289Z,58.26
2023-01-05T01:13:26.511Z,58.77
2023-01-05T01:13:58.580Z,59.40
2023-01-05T01:14:30.492Z,60.13
2023-01-05T01:15:02.892Z,60.52
2023-01-05T01:15:35.469Z,61.22
2023-01-05T01:16:09.559Z,61.88
2023-01-05T01:16:42.478Z,62.54
2023-01-05T01:17:15.842Z,62.96
2023-01-05T01:17:47.816Z,63.45
2023-01-05T01:18:19.948Z,63.20
2023-01-05T01:18:53.596Z,62.67
2023-01-05T01:19:27.223Z,62.23
2023-01-05T01:19:59.174Z,61.01
2023-01-05T01:20:31.209Z,60.17
2023-01-05T01:21:04.145Z,59.08
2023-01-05T01:21:36.247Z,58.35
2023-01-05T01:22:08.328Z,57.79
2023-01-05T01:22:40.544Z,57.65
2023-01-05T01:23:12.620Z,57.86
2023-01-05T01:23:44.816Z,58.39
2023-01-05T01:24:20.645Z,58.87
2023-01-05T01:24:52.623Z,59.49
2023-01-05T01:25:33.314Z,60.24
2023-01-05T01:26:09.671Z,61.09
2023-01-05T01:26:41.616Z,61.62
2023-01-05T01:27:13.799Z,62.31
2023-01-05T01:27:45.858Z,62.85
2023-01-05T01:28:17.983Z,63.41
2023-01-05T01:28:50.056Z,63.55
2023-01-05T01:29:23.175Z,63.14
2023-01-05T01:29:54.986Z,62.40
2023-01-05T01:30:27.097Z,61.78
2023-01-05T01:30:59.361Z,60.99
2023-01-05T01:31:31.288Z,60.11
2023-01-05T01:32:13.260Z,59.51
2023-01-05T01:32:45.383Z,58.57
2023-01-05T01:33:17.288Z,58.05
2023-01-05T01:33:49.469Z,57.92
2023-01-05T01:34:21.532Z,58.19
2023-01-05T01:34:54.748Z,58.63
2023-01-05T01:35:54.689Z,59.14
2023-01-05T01:36:26.843Z,60.24
2023-01-05T01:36:59.976Z,60.96
2023-01-05T01:37:32.039Z,61.57
2023-01-05T01:38:04.268Z,62.16
2023-01-05T01:38:36.518Z,62.80
2023-01-05T01:39:08.971Z,63.26
2023-01-05T01:39:40.930Z,63.51
2023-01-05T01:40:13.703Z,63.24
2023-01-05T01:40:47.246Z,62.59
2023-01-05T01:41:19.440Z,62.12
2023-01-05T01:41:51.454Z,60.90
2023-01-05T01:42:23.546Z,60.12
2023-01-05T01:42:55.663Z,59.47
2023-01-05T01:43:44.331Z,58.50
2023-01-05T01:44:47.886Z,57.67
2023-01-05T01:45:25.075Z,57.86
2023-01-05T01:45:57.278Z,58.42
2023-01-05T01:46:29.798Z,59.07
2023-01-05T01:47:01.856Z,59.70
2023-01-05T01:47:47.031Z,60.32
2023-01-05T01:48:19.451Z,61.24
2023-01-05T01:49:04.528Z,61.72
2023-01-05T01:49:36.704Z,62.48
2023-01-05T01:50:21.579Z,63.05
2023-01-05T01:50:54.584Z,63.55
2023-01-05T01:51:36.885Z,63.33
2023-01-05T01:52:09.338Z,62.30
2023-01-05T01:52:42.735Z,61.58
2023-01-05T01:53:20.574Z,60.70
2023-01-05T01:53:57.610Z,59.47
2023-01-05T01:54:29.832Z,58.80
2023-01-05T01:55:04.162Z,57.94
2023-01-05T01:55:38.742Z,57.51
2023-01-05T01:56:16.186Z,57.69
2023-01-05T01:56:53.111Z,58.24
2023-01-05T01:57:27.711Z,58.89
2023-01-05T01:58:02.707Z,59.50
2023-01-05T01:58:35.305Z,60.17
2023-01-05T01:59:08.291Z,60.87
2023-01-05T01:59:40.823Z,61.51
2023-01-05T02:00:14.288Z,62.18
2023-01-05T02:00:47.392Z,62.59
2023-01-05T02:01:19.686Z,63.38
2023-01-05T02:01:56.321Z,63.66
2023-01-05T02:02:29.728Z,63.50
2023-01-05T02:03:02.153Z,62.80
2023-01-05T02:03:34.292Z,61.84
2023-01-05T02:04:07.626Z,60.97
2023-01-05T02:04:40.231Z,59.90
2023-01-05T02:05:15.688Z,59.05
2023-01-05T02:05:47.707Z,58.28
2023-01-05T02:06:19.741Z,57.87
2023-01-05T02:06:54.493Z,57.77
2023-01-05T02:07:32.306Z,57.99
2023-01-05T02:08:11.096Z,58.50
2023-01-05T02:08:43.678Z,59.37
2023-01-05T02:09:15.686Z,59.97
2023-01-05T02:09:47.658Z,60.66
2023-01-05T02:10:33.780Z,61.43
2023-01-05T02:11:30.510Z,62.08
2023-01-05T02:12:05.379Z,62.91
2023-01-05T02:12:52.476Z,63.34
2023-01-05T02:13:39.413Z,63.04
2023-01-05T02:14:19.962Z,62.18
2023-01-05T02:15:05.650Z,61.13
2023-01-05T02:15:57.488Z,60.45
2023-01-05T02:17:05.191Z,59.31
2023-01-05T02:18:14.110Z,58.00
2023-01-05T02:19:00.954Z,58.26
2023-01-05T02:19:32.986Z,59.04
2023-01-05T02:20:49.710Z,59.57
2023-01-05T02:21:45.767Z,60.83
2023-01-05T02:22:39.526Z,61.97
2023-01-05T02:23:25.193Z,62.44
2023-01-05T02:24:11.915Z,63.40
2023-01-05T02:25:04.900Z,63.49
2023-01-05T02:26:00.705Z,63.13
2023-01-05T02:27:26.857Z,61.54
2023-01-05T02:28:13.654Z,60.87
2023-01-05T02:29:30.751Z,58.91
2023-01-05T02:30:17.435Z,58.51
2023-01-05T02:31:16.906Z,58.67
2023-01-05T02:31:57.683Z,59.43
2023-01-05T02:32:34.523Z,60.18
2023-01-05T02:33:38.747Z,61.08
2023-01-05T02:34:38.163Z,62.70
2023-01-05T02:35:15.760Z,63.18
2023-01-05T02:36:09.623Z,63.31
2023-01-05T02:36:53.529Z,62.65
2023-01-05T02:37:57.575Z,61.58
2023-01-05T02:38:37.392Z,60.09
2023-01-05T02:39:44.803Z,59.95
2023-01-05T02:40:32.096Z,58.60
2023-01-05T02:41:14.051Z,58.20
2023-01-05T02:43:00.502Z,58.03
2023-01-05T02:43:33.983Z,59.08
2023-01-05T02:44:22.825Z,59.79
2023-01-05T02:45:16.496Z,60.02
2023-01-05T02:45:49.121Z,61.35
2023-01-05T02:46:21.362Z,62.29
2023-01-05T02:47:27.512Z,63.04
2023-01-05T02:47:59.609Z,63.71
2023-01-05T02:48:39.529Z,63.70
2023-01-05T02:49:17.443Z,62.84
2023-01-05T02:49:49.698Z,61.91
2023-01-05T02:50:47.112Z,61.29
2023-01-05T02:51:41.774Z,61.27
2023-01-05T02:52:15.529Z,59.66
2023-01-05T02:52:54.256Z,58.64
2023-01-05T02:53:47.189Z,58.11
2023-01-05T02:54:29.038Z,58.21
2023-01-05T02:55:08.146Z,58.64
2023-01-05T02:55:54.719Z,59.36
2023-01-05T02:56:36.943Z,60.16
2023-01-05T02:57:42.808Z,61.02
2023-01-05T02:58:33.793Z,61.99
2023-01-05T02:59:22.971Z,63.26
2023-01-05T02:59:55.862Z,63.68
2023-01-05T03:00:43.991Z,63.58
2023-01-05T03:01:35.608Z,62.62
2023-01-05T03:02:20.490Z,62.16
2023-01-05T03:03:06.490Z,61.00
2023-01-05T03:03:44.909Z,60.16
2023-01-05T03:04:24.542Z,59.45
2023-01-05T03:05:09.572Z,58.90
2023-01-05T03:05:54.641Z,58.28
2023-01-05T03:06:26.734Z,58.30
2023-01-05T03:07:06.924Z,58.71
2023-01-05T03:07:43.545Z,59.22
2023-01-05T03:08:30.608Z,59.81
2023-01-05T03:09:06.191Z,60.72
2023-01-05T03:09:40.559Z,61.81
2023-01-05T03:10:32.760Z,62.33
2023-01-05T03:11:26.413Z,63.30
2023-01-05T03:12:26.397Z,63.61
2023-01-05T03:13:40.000Z,62.80
2023-01-05T03:14:23.825Z,61.44
2023-01-05T03:15:06.414Z,60.85
2023-01-05T03:15:42.599Z,59.81
2023-01-05T03:16:34.477Z,59.08
2023-01-05T03:17:11.509Z,58.49
2023-01-05T03:17:59.608Z,58.58
2023-01-05T03:18:59.189Z,58.98
2023-01-05T03:20:40.738Z,59.96
2023-01-05T03:21:27.062Z,61.80
2023-01-05T03:22:29.023Z,62.41
2023-01-05T03:23:23.558Z,63.38
2023-01-05T03:24:15.699Z,63.56
2023-01-05T03:25:06.769Z,63.16
2023-01-05T03:25:58.046Z,61.95
2023-01-05T03:26:49.451Z,61.32
2023-01-05T03:27:47.464Z,60.05
2023-01-05T03:29:16.487Z,59.33
2023-01-05T03:30:07.082Z,58.43
2023-01-05T03:31:30.927Z,58.63
2023-01-05T03:32:45.772Z,59.31
2023-01-05T03:33:55.016Z,61.02
2023-01-05T03:34:52.530Z,62.09
2023-01-05T03:35:32.425Z,63.04
2023-01-05T03:36:08.433Z,63.70
2023-01-05T03:36:55.811Z,63.65
2023-01-05T03:37:35.611Z,62.41
2023-01-05T03:38:17.637Z,61.65
2023-01-05T03:38:53.291Z,60.37
2023-01-05T03:39:27.482Z,59.76
2023-01-05T03:40:01.597Z,59.36
2023-01-05T03:40:36.675Z,58.41
2023-01-05T03:41:10.330Z,58.02
2023-01-05T03:41:42.687Z,57.91
2023-01-05T03:42:15.963Z,58.09
2023-01-05T03:42:48.488Z,58.41
2023-01-05T03:43:21.618Z,58.87
2023-01-05T03:43:53.949Z,59.43
2023-01-05T03:44:26.529Z,60.43
2023-01-05T03:44:58.676Z,61.25
2023-01-05T03:45:41.093Z,61.73
2023-01-05T03:46:21.114Z,62.39
2023-01-05T03:46:53.268Z,63.13
2023-01-05T03:47:25.282Z,63.50
2023-01-05T03:47:57.268Z,63.50
2023-01-05T03:48:29.410Z,63.15
2023-01-05T03:49:01.487Z,62.81
2023-01-05T03:49:33.671Z,61.95
2023-01-05T03:50:06.281Z,61.41
2023-01-05T03:50:38.141Z,60.78
2023-01-05T03:51:10.448Z,59.94
2023-01-05T03:51:42.462Z,59.40
2023-01-05T03:52:14.405Z,59.08
2023-01-05T03:52:46.372Z,58.74
2023-01-05T03:53:18.452Z,58.56
2023-01-05T03:53:50.438Z,58.69
2023-01-05T03:54:22.486Z,58.94
2023-01-05T03:54:54.468Z,59.47
2023-01-05T03:55:26.438Z,60.19
2023-01-05T03:55:58.697Z,60.99
2023-01-05T03:56:31.124Z,61.62
2023-01-05T03:57:03.331Z,62.23
2023-01-05T03:57:35.422Z,62.68
2023-01-05T03:58:07.739Z,63.30
2023-01-05T03:58:39.716Z,63.57
2023-01-05T03:59:11.783Z,63.42
2023-01-05T03:59:43.895Z,63.05
2023-01-05T04:00:16.273Z,62.32
2023-01-05T04:00:48.239Z,61.62
2023-01-05T04:01:20.301Z,60.75
2023-01-05T04:01:52.460Z,60.08
2023-01-05T04:02:24.727Z,59.60
2023-01-05T04:02:57.275Z,59.15
2023-01-05T04:03:31.866Z,58.57
2023-01-05T04:04:04.527Z,58.30
2023-01-05T04:04:36.749Z,58.32
2023-01-05T04:05:09.026Z,58.76
2023-01-05T04:05:41.230Z,59.24
2023-01-05T04:06:13.715Z,59.87
2023-01-05T04:06:45.838Z,60.59
2023-01-05T04:07:17.980Z,61.20
2023-01-05T04:07:50.127Z,61.79
2023-01-05T04:08:22.196Z,62.29
2023-01-05T04:08:54.183Z,62.96
2023-01-05T04:09:26.020Z,63.40
2023-01-05T04:09:57.934Z,63.56
2023-01-05T04:10:29.952Z,63.32
2023-01-05T04:11:19.814Z,62.66
2023-01-05T04:11:52.015Z,61.86
2023-01-05T04:12:23.962Z,60.84
2023-01-05T04:12:56.017Z,60.13
2023-01-05T04:13:28.039Z,59.57
2023-01-05T04:14:00.149Z,59.04
2023-01-05T04:14:32.049Z,58.45
2023-01-05T04:15:05.532Z,58.32
2023-01-05T04:15:38.279Z,58.54
2023-01-05T04:16:10.769Z,59.03
2023-01-05T04:16:42.871Z,59.55
2023-01-05T04:17:14.925Z,60.07
2023-01-05T04:17:47.011Z,60.67
2023-01-05T04:18:19.110Z,61.23
2023-01-05T04:18:51.166Z,62.08
2023-01-05T04:19:23.046Z,62.77
2023-01-05T04:19:55.658Z,63.32
2023-01-05T04:20:27.527Z,63.61
2023-01-05T04:20:59.623Z,63.53
2023-01-05T04:21:31.508Z,63.12
2023-01-05T04:22:03.526Z,62.50
2023-01-05T04:22:35.472Z,61.96
2023-01-05T04:23:07.507Z,61.49
2023-01-05T04:23:39.659Z,60.84
2023-01-05T04:24:12.506Z,60.03
2023-01-05T04:24:44.354Z,59.65
2023-01-05T04:25:16.707Z,59.08
2023-01-05T04:25:48.848Z,58.55
2023-01-05T04:26:20.760Z,58.30
2023-01-05T04:26:52.750Z,58.58
2023-01-05T04:27:24.738Z,59.04
2023-01-05T04:27:57.448Z,59.71
2023-01-05T04:28:29.653Z,60.41
2023-01-05T04:29:01.906Z,61.10
2023-01-05T04:29:33.990Z,61.66
2023-01-05T04:30:07.468Z,62.18
2023-01-05T04:30:39.726Z,62.66
2023-01-05T04:31:11.661Z,63.25
2023-01-05T04:31:43.549Z,63.55
2023-01-05T04:32:15.518Z,63.50
2023-01-05T04:32:47.524Z,63.12
2023-01-05T04:33:20.741Z,62.32
2023-01-05T04:33:52.833Z,61.91
2023-01-05T04:34:24.849Z,61.04
2023-01-05T04:34:56.941Z,60.41
2023-01-05T04:35:29.212Z,59.88
2023-01-05T04:36:01.152Z,59.09
2023-01-05T04:36:33.239Z,58.59
2023-01-05T04:37:05.152Z,58.43
2023-01-05T04:37:37.318Z,58.75
2023-01-05T04:38:09.278Z,59.37
2023-01-05T04:38:41.301Z,59.79
2023-01-05T04:39:13.964Z,60.51
2023-01-05T04:39:46.023Z,61.23
2023-01-05T04:40:17.997Z,62.02
2023-01-05T04:40:51.581Z,62.65
2023-01-05T04:41:23.488Z,63.34
2023-01-05T04:41:55.680Z,63.84
2023-01-05T04:42:28.282Z,63.83
2023-01-05T04:43:00.273Z,63.58
2023-01-05T04:43:32.267Z,63.11
2023-01-05T04:44:04.817Z,62.63
2023-01-05T04:44:36.911Z,62.14
2023-01-05T04:45:10.771Z,61.88
2023-01-05T04:45:42.727Z,60.99
2023-01-05T04:46:15.018Z,60.41
2023-01-05T04:46:47.525Z,59.87
2023-01-05T04:47:19.446Z,59.59
2023-01-05T04:47:52.250Z,59.09
2023-01-05T04:48:24.248Z,58.61
2023-01-05T04:48:56.128Z,58.54
2023-01-05T04:49:28.644Z,59.10
2023-01-05T04:50:00.508Z,59.55
2023-01-05T04:50:32.557Z,60.20
2023-01-05T04:51:04.571Z,60.86
2023-01-05T04:51:36.871Z,61.67
2023-01-05T04:52:09.634Z,62.15
2023-01-05T04:52:41.797Z,62.86
2023-01-05T04:53:13.993Z,63.62
2023-01-05T04:53:45.896Z,63.99
2023-01-05T04:54:18.080Z,63.90
2023-01-05T04:54:50.150Z,63.53
2023-01-05T04:55:22.153Z,63.13
2023-01-05T04:55:54.265Z,62.68
2023-01-05T04:56:26.895Z,61.71
2023-01-05T04:56:59.277Z,61.21
2023-01-05T04:57:31.602Z,60.34
2023-01-05T04:58:08.353Z,59.85
2023-01-05T04:58:43.808Z,59.54
2023-01-05T04:59:15.983Z,58.86
2023-01-05T04:59:47.932Z,58.54
2023-01-05T05:00:19.937Z,58.51
2023-01-05T05:00:51.999Z,58.71
2023-01-05T05:01:24.123Z,59.15
2023-01-05T05:01:56.331Z,59.58
2023-01-05T05:02:28.675Z,60.31
2023-01-05T05:03:01.968Z,61.01
2023-01-05T05:03:34.310Z,61.69
2023-01-05T05:04:06.456Z,62.39
2023-01-05T05:04:38.574Z,63.08
2023-01-05T05:05:10.553Z,63.68
2023-01-05T05:05:42.697Z,63.88
2023-01-05T05:06:16.459Z,63.75
2023-01-05T05:06:48.647Z,63.19
2023-01-05T05:07:20.680Z,62.58
2023-01-05T05:07:53.043Z,61.91
2023-01-05T05:08:25.261Z,61.30
2023-01-05T05:08:57.779Z,60.62
2023-01-05T05:09:29.839Z,59.95
2023-01-05T05:10:02.127Z,59.61
2023-01-05T05:10:34.107Z,59.17
2023-01-05T05:11:06.070Z,58.64
2023-01-05T05:11:38.178Z,58.53
2023-01-05T05:12:10.189Z,58.75
2023-01-05T05:12:42.245Z,59.06
2023-01-05T05:13:14.358Z,59.73
2023-01-05T05:13:46.492Z,60.24
2023-01-05T05:14:18.591Z,60.85
2023-01-05T05:14:50.758Z,61.64
2023-01-05T05:15:22.724Z,62.34
2023-01-05T05:15:54.790Z,62.98
2023-01-05T05:16:26.933Z,63.58
2023-01-05T05:16:59.012Z,63.88
2023-01-05T05:17:30.868Z,63.72
2023-01-05T05:18:08.664Z,63.36
2023-01-05T05:18:41.360Z,62.81
2023-01-05T05:19:13.507Z,62.16
2023-01-05T05:19:45.558Z,61.52
2023-01-05T05:20:17.674Z,61.00
2023-01-05T05:20:51.635Z,60.34
2023-01-05T05:21:23.895Z,59.94
2023-01-05T05:21:55.779Z,59.47
2023-01-05T05:22:28.116Z,58.94
2023-01-05T05:23:00.132Z,58.54
2023-01-05T05:23:32.214Z,58.39
2023-01-05T05:24:04.520Z,58.66
2023-01-05T05:24:36.496Z,59.10
2023-01-05T05:25:08.877Z,59.75
2023-01-05T05:25:40.817Z,60.30
2023-01-05T05:26:12.806Z,61.01
2023-01-05T05:26:54.934Z,61.80
2023-01-05T05:27:36.465Z,62.43
2023-01-05T05:28:31.750Z,63.23
2023-01-05T05:29:17.050Z,63.91
2023-01-05T05:29:49.012Z,63.92
2023-01-05T05:30:28.052Z,63.28
2023-01-05T05:31:07.816Z,62.80
2023-01-05T05:31:39.979Z,61.97
2023-01-05T05:32:12.003Z,61.06
2023-01-05T05:32:45.782Z,60.57
2023-01-05T05:33:30.207Z,60.14
2023-01-05T05:34:23.974Z,59.45
2023-01-05T05:34:56.039Z,59.19
2023-01-05T05:35:28.185Z,59.16
2023-01-05T05:36:01.407Z,59.33
2023-01-05T05:36:34.020Z,59.87
2023-01-05T05:37:06.312Z,60.41
2023-01-05T05:37:41.523Z,61.05
2023-01-05T05:38:13.571Z,61.80
2023-01-05T05:38:53.382Z,62.35
2023-01-05T05:39:45.344Z,62.91
2023-01-05T05:40:21.598Z,63.84
2023-01-05T05:40:53.676Z,64.07
2023-01-05T05:41:25.612Z,63.52
2023-01-05T05:41:57.697Z,62.94
2023-01-05T05:42:32.643Z,62.25
2023-01-05T05:43:04.773Z,61.76
2023-01-05T05:44:10.829Z,61.18
2023-01-05T05:44:42.845Z,61.07
2023-01-05T05:45:17.783Z,59.96
2023-01-05T05:45:50.811Z,59.44
2023-01-05T05:46:23.374Z,59.01
2023-01-05T05:47:06.173Z,58.65
2023-01-05T05:47:38.139Z,58.50
2023-01-05T05:48:15.993Z,58.99
2023-01-05T05:48:47.971Z,59.67
2023-01-05T05:49:20.169Z,60.29
2023-01-05T05:49:52.280Z,61.03
2023-01-05T05:50:24.289Z,61.74
2023-01-05T05:50:56.406Z,62.44
2023-01-05T05:51:28.483Z,63.19
2023-01-05T05:52:00.579Z,63.73
2023-01-05T05:52:32.505Z,63.99
2023-01-05T05:53:04.587Z,63.82
2023-01-05T05:53:36.675Z,63.42
2023-01-05T05:54:08.627Z,62.84
2023-01-05T05:54:40.795Z,62.37
2023-01-05T05:55:13.214Z,61.90
2023-01-05T05:55:49.870Z,61.32
2023-01-05T05:56:34.504Z,60.88
2023-01-05T05:57:09.340Z,59.91
2023-01-05T05:57:41.391Z,59.61
2023-01-05T05:58:13.520Z,59.17
2023-01-05T05:59:16.479Z,58.85
2023-01-05T05:59:48.447Z,58.71
2023-01-05T06:00:20.229Z,59.28
2023-01-05T06:01:09.606Z,59.85
2023-01-05T06:01:41.640Z,60.41
2023-01-05T06:02:13.763Z,61.49
2023-01-05T06:02:45.991Z,62.33
2023-01-05T06:03:42.983Z,62.97
2023-01-05T06:04:14.954Z,63.72
2023-01-05T06:04:46.787Z,63.79
2023-01-05T06:05:33.559Z,63.30
2023-01-05T06:06:05.881Z,62.80
2023-01-05T06:06:38.522Z,62.25
2023-01-05T06:07:10.408Z,61.39
2023-01-05T06:07:42.436Z,60.57
2023-01-05T06:08:14.822Z,60.18
2023-01-05T06:08:46.991Z,59.54
2023-01-05T06:09:19.000Z,58.91
2023-01-05T06:09:51.197Z,58.46
2023-01-05T06:10:23.849Z,58.25
2023-01-05T06:10:56.649Z,58.47
2023-01-05T06:11:28.801Z,58.84
2023-01-05T06:12:00.739Z,59.30
2023-01-05T06:12:33.142Z,59.99
2023-01-05T06:13:05.705Z,60.68
2023-01-05T06:13:37.724Z,61.46
2023-01-05T06:14:09.879Z,62.22
2023-01-05T06:14:42.076Z,62.82
2023-01-05T06:15:14.372Z,63.39
2023-01-05T06:15:46.726Z,63.63
2023-01-05T06:16:18.915Z,63.52
2023-01-05T06:16:51.373Z,62.78
2023-01-05T06:17:23.422Z,61.92
2023-01-05T06:17:55.834Z,61.18
2023-01-05T06:18:28.082Z,60.40
2023-01-05T06:19:00.017Z,59.81
2023-01-05T06:19:32.219Z,59.16
2023-01-05T06:20:05.773Z,58.57
2023-01-05T06:20:37.880Z,58.35
2023-01-05T06:21:12.419Z,58.66
2023-01-05T06:21:44.739Z,59.26
2023-01-05T06:22:16.858Z,59.82
2023-01-05T06:22:49.020Z,60.46
2023-01-05T06:23:21.128Z,61.13
2023-01-05T06:23:53.618Z,61.98
2023-01-05T06:24:25.724Z,62.72
2023-01-05T06:24:57.995Z,63.46
2023-01-05T06:25:30.034Z,63.92
2023-01-05T06:26:02.174Z,64.07
2023-01-05T06:26:34.246Z,63.66
2023-01-05T06:27:06.449Z,63.12
2023-01-05T06:27:38.411Z,62.55
2023-01-05T06:28:12.117Z,61.97
2023-01-05T06:28:45.952Z,61.42
2023-01-05T06:29:18.239Z,60.91
2023-01-05T06:29:50.277Z,60.39
2023-01-05T06:30:22.331Z,59.99
2023-01-05T06:30:54.485Z,59.56
2023-01-05T06:31:26.688Z,59.17
2023-01-05T06:31:58.970Z,58.76
2023-01-05T06:32:30.943Z,58.71
2023-01-05T06:33:03.323Z,59.02
2023-01-05T06:33:35.455Z,59.50
2023-01-05T06:34:07.740Z,60.11
2023-01-05T06:34:39.832Z,60.91
2023-01-05T06:35:12.021Z,61.73
2023-01-05T06:35:44.270Z,62.40
2023-01-05T06:36:16.491Z,63.18
2023-01-05T06:36:48.377Z,63.94
2023-01-05T06:37:20.387Z,64.27
2023-01-05T06:37:52.579Z,64.22
2023-01-05T06:38:25.650Z,63.99
2023-01-05T06:38:57.591Z,63.59
2023-01-05T06:39:29.586Z,63.01
2023-01-05T06:40:02.215Z,62.46
2023-01-05T06:40:34.455Z,61.87
2023-01-05T06:41:06.562Z,61.43
2023-01-05T06:41:38.732Z,60.92
2023-01-05T06:42:11.008Z,60.48
2023-01-05T06:42:43.529Z,60.15
2023-01-05T06:43:15.657Z,59.79
2023-01-05T06:43:47.729Z,59.51
2023-01-05T06:44:19.793Z,59.07
2023-01-05T06:44:51.840Z,58.80
2023-01-05T06:45:24.385Z,58.80
2023-01-05T06:45:56.757Z,59.10
2023-01-05T06:46:28.898Z,59.59
2023-01-05T06:47:01.333Z,60.19
2023-01-05T06:47:33.680Z,60.84
2023-01-05T06:48:05.977Z,61.56
2023-01-05T06:48:38.204Z,62.34
2023-01-05T06:49:11.956Z,63.19
2023-01-05T06:49:44.110Z,63.80
2023-01-05T06:50:16.400Z,64.08
2023-01-05T06:50:48.639Z,63.94
2023-01-05T06:51:20.917Z,63.72
2023-01-05T06:51:53.280Z,63.26
2023-01-05T06:52:25.605Z,62.55
2023-01-05T06:52:58.857Z,61.87
2023-01-05T06:53:31.112Z,61.17
2023-01-05T06:54:03.475Z,60.66
2023-01-05T06:54:35.569Z,60.11
2023-01-05T06:55:09.812Z,59.65
2023-01-05T06:55:41.910Z,59.45
2023-01-05T06:56:14.067Z,58.99
2023-01-05T06:56:46.389Z,58.62
2023-01-05T06:57:18.287Z,58.65
2023-01-05T06:57:51.560Z,58.95
2023-01-05T06:58:26.558Z,59.52
2023-01-05T06:58:58.946Z,60.10
2023-01-05T06:59:31.121Z,60.99
2023-01-05T07:00:10.005Z,61.69
2023-01-05T07:00:42.192Z,62.11
2023-01-05T07:01:14.663Z,63.08
2023-01-05T07:01:46.971Z,63.93
2023-01-05T07:02:19.177Z,64.35
2023-01-05T07:02:51.378Z,64.34
2023-01-05T07:03:24.014Z,63.98
2023-01-05T07:03:56.287Z,63.52
2023-01-05T07:04:28.573Z,62.87
2023-01-05T07:05:01.012Z,62.44
2023-01-05T07:05:33.095Z,61.87
2023-01-05T07:06:08.756Z,61.40
2023-01-05T07:06:45.207Z,60.84
2023-01-05T07:07:17.122Z,60.44
2023-01-05T07:07:49.086Z,60.03
2023-01-05T07:08:21.316Z,59.70
2023-01-05T07:09:10.688Z,59.44
2023-01-05T07:09:44.709Z,59.22
2023-01-05T07:10:16.821Z,58.83
2023-01-05T07:10:48.934Z,59.03
2023-01-05T07:11:21.052Z,59.52
2023-01-05T07:11:53.285Z,60.11
2023-01-05T07:12:26.035Z,60.74
2023-01-05T07:12:58.264Z,61.49
2023-01-05T07:13:30.479Z,62.21
2023-01-05T07:14:02.500Z,62.93
2023-01-05T07:14:34.772Z,63.68
2023-01-05T07:15:07.776Z,64.10
2023-01-05T07:15:40.132Z,64.08
2023-01-05T07:16:12.224Z,63.81
2023-01-05T07:16:44.439Z,63.25
2023-01-05T07:17:16.757Z,62.62
2023-01-05T07:17:48.829Z,62.07
2023-01-05T07:18:20.887Z,61.44
2023-01-05T07:18:53.108Z,60.93
2023-01-05T07:19:25.349Z,60.42
2023-01-05T07:19:57.466Z,59.92
2023-01-05T07:20:30.020Z,59.47
2023-01-05T07:21:02.133Z,59.16
2023-01-05T07:21:34.227Z,58.82
2023-01-05T07:22:06.421Z,58.78
2023-01-05T07:22:38.500Z,59.03
2023-01-05T07:23:57.095Z,59.58
2023-01-05T07:24:29.044Z,60.22
2023-01-05T07:25:01.039Z,61.69
2023-01-05T07:25:33.208Z,62.61
2023-01-05T07:26:07.321Z,63.29
2023-01-05T07:27:29.399Z,64.28
2023-01-05T07:28:01.569Z,63.98
2023-01-05T07:28:34.456Z,63.62
2023-01-05T07:29:06.359Z,63.09
2023-01-05T07:29:38.388Z,62.51
2023-01-05T07:30:19.376Z,61.78
2023-01-05T07:30:52.354Z,61.38
2023-01-05T07:31:24.419Z,60.72
2023-01-05T07:31:58.148Z,60.27
2023-01-05T07:32:30.121Z,59.87
2023-01-05T07:33:02.234Z,59.43
2023-01-05T07:33:39.653Z,59.07
2023-01-05T07:34:12.860Z,58.64
2023-01-05T07:34:54.880Z,58.65
2023-01-05T07:35:28.672Z,58.71
2023-01-05T07:36:02.021Z,59.49
2023-01-05T07:36:34.242Z,60.19
2023-01-05T07:37:06.216Z,60.99
2023-01-05T07:37:38.247Z,61.67
2023-01-05T07:38:10.481Z,62.40
2023-01-05T07:38:42.798Z,63.13
2023-01-05T07:39:15.552Z,63.83
2023-01-05T07:39:47.815Z,64.19
2023-01-05T07:40:20.008Z,64.15
2023-01-05T07:40:51.907Z,63.78
2023-01-05T07:41:23.968Z,63.25
2023-01-05T07:41:56.109Z,62.66
2023-01-05T07:42:28.084Z,62.01
2023-01-05T07:43:00.810Z,61.47
2023-01-05T07:43:32.945Z,61.03
2023-01-05T07:44:05.760Z,60.49
2023-01-05T07:44:37.755Z,60.13
2023-01-05T07:45:10.465Z,59.82
2023-01-05T07:45:43.407Z,59.38
2023-01-05T07:46:15.541Z,59.07
2023-01-05T07:46:47.638Z,58.69
2023-01-05T07:47:19.951Z,58.74